Terminal Aerodrome Forecast
Issued by NWS

Home | Current Version | Previous Version | Text Only | Print | Product List | Glossary On
Versions: 1 2 3 4 5 6 7 8 9 10 11 12 13 14 15 16 17 18
000
FTUS43 KAPX 112339
TAFAPN
TAF
KAPN 112339Z 1200/1224 17004KT 5SM -SHSN OVC020
      TEMPO 1200/1203 2SM -SHSN BKN015 OVC030
     FM120300 24004KT 4SM -SHSN OVC020
     FM120500 27006KT P6SM -SHSN OVC020
     FM120900 31014G24KT P6SM VCSH OVC030
     FM121500 33016G26KT 6SM -SHSN OVC020=

USA.gov is the U.S. government's official web portal to all federal, state and local government web resources and services.